Time;durP1;ratioP1;P1;durP2;ratioP2;P2;SDS_P1;SDS_P2;PMS_P1;PMS_P2;Temp;Humidity;BMP_temperature;BMP_pressure;BME280_temperature;BME280_humidity;BME280_pressure;Samples;Min_cycle;Max_cycle;Signal;HPM_P1;HPM_P2
2022/12/29 00:00:00;;;;;;;10.45;2.90;;;23.80;99.90;;;;;;5050898;28;20380;-87
2022/12/29 00:02:27;;;;;;;6.25;2.67;;;23.90;99.90;;;;;;5051110;28;20421;-81
2022/12/29 00:04:54;;;;;;;5.95;2.70;;;23.90;99.90;;;;;;5063251;28;20387;-84
2022/12/29 00:07:21;;;;;;;5.30;2.30;;;23.80;99.90;;;;;;5050723;28;20407;-83
2022/12/29 00:09:49;;;;;;;6.27;2.63;;;23.70;99.90;;;;;;5051059;28;20856;-82
2022/12/29 00:12:16;;;;;;;5.43;2.47;;;23.60;99.90;;;;;;5052986;28;20382;-83
2022/12/29 00:17:28;;;;;;;5.17;2.27;;;23.50;99.90;;;;;;5059395;28;20429;-86
2022/12/29 00:36:44;;;;;;;6.47;2.40;;;24.50;99.90;;;;;;5005334;28;20370;-86
2022/12/29 00:44:53;;;;;;;7.00;2.22;;;24.60;99.90;;;;;;5007558;28;20434;-84
2022/12/29 00:47:20;;;;;;;6.47;2.58;;;24.60;99.90;;;;;;5005386;28;20407;-84
2022/12/29 00:49:47;;;;;;;6.33;2.43;;;24.50;99.90;;;;;;4999435;28;20468;-83
2022/12/29 00:52:14;;;;;;;6.78;2.67;;;24.50;99.90;;;;;;5014766;28;20903;-84
2022/12/29 00:54:44;;;;;;;6.03;2.65;;;24.40;99.90;;;;;;5003722;28;20429;-83
2022/12/29 00:57:12;;;;;;;5.43;2.78;;;24.30;99.90;;;;;;5001373;28;20397;-85
2022/12/29 00:59:41;;;;;;;7.40;3.03;;;24.30;99.90;;;;;;5006645;28;20895;-85
2022/12/29 01:02:08;;;;;;;8.65;2.90;;;24.20;99.90;;;;;;5042464;28;20399;-83
2022/12/29 01:04:36;;;;;;;5.63;2.50;;;24.10;99.90;;;;;;5050560;28;20798;-83
2022/12/29 01:07:03;;;;;;;5.60;2.63;;;23.90;99.90;;;;;;5050834;28;20464;-87
2022/12/29 01:12:16;;;;;;;5.30;2.13;;;23.90;99.90;;;;;;5043380;28;20382;-87
2022/12/29 01:14:43;;;;;;;6.22;2.45;;;24.00;99.90;;;;;;5050077;28;20390;-83
2022/12/29 01:17:09;;;;;;;5.97;2.22;;;24.20;99.90;;;;;;5049483;28;20372;-84
2022/12/29 01:19:36;;;;;;;5.85;2.30;;;24.50;99.90;;;;;;5041427;28;20393;-82
2022/12/29 01:22:03;;;;;;;7.28;2.30;;;25.00;99.90;;;;;;5041150;28;20390;-87
2022/12/29 01:24:30;;;;;;;5.63;2.07;;;25.40;99.90;;;;;;5054890;28;20950;-85
2022/12/29 01:26:57;;;;;;;4.93;2.05;;;25.60;99.90;;;;;;5054466;28;20490;-84
2022/12/29 01:29:24;;;;;;;4.47;1.95;;;25.60;99.90;;;;;;5054772;28;20375;-84
2022/12/29 01:31:51;;;;;;;5.10;2.10;;;25.40;99.90;;;;;;5054808;28;20398;-86
2022/12/29 01:34:19;;;;;;;4.05;2.00;;;25.30;99.90;;;;;;5054843;28;20380;-85
2022/12/29 01:36:46;;;;;;;4.85;2.10;;;25.00;99.90;;;;;;5054440;28;20379;-87
2022/12/29 01:39:13;;;;;;;4.75;2.05;;;24.80;99.90;;;;;;5054475;28;20454;-87
2022/12/29 01:41:40;;;;;;;3.45;1.90;;;24.80;99.90;;;;;;5051720;28;20420;-83
2022/12/29 01:45:00;;;;;;;5.07;2.13;;;24.90;99.90;;;;;;5034534;28;20813;-86
2022/12/29 01:47:43;;;;;;;5.28;2.20;;;24.90;99.90;;;;;;4954205;28;20408;-84
2022/12/29 01:50:37;;;;;;;5.35;2.03;;;25.10;99.90;;;;;;4963250;28;20393;-84
2022/12/29 01:53:22;;;;;;;5.20;2.13;;;25.20;99.90;;;;;;4966687;28;20927;-86
2022/12/29 01:55:54;;;;;;;5.20;2.20;;;25.40;99.90;;;;;;4970447;28;20409;-89
2022/12/29 01:58:24;;;;;;;5.30;2.00;;;25.30;99.90;;;;;;4986268;28;20463;-84
2022/12/29 02:00:51;;;;;;;5.77;2.20;;;25.20;99.90;;;;;;4973070;28;20391;-86
2022/12/29 02:03:21;;;;;;;4.18;1.95;;;25.30;99.90;;;;;;4957089;28;20394;-87
2022/12/29 02:05:54;;;;;;;5.63;2.00;;;25.30;99.90;;;;;;4965835;28;20491;-85
2022/12/29 02:08:28;;;;;;;7.38;2.05;;;25.50;99.90;;;;;;4973114;28;20498;-85
2022/12/29 02:10:58;;;;;;;4.83;2.00;;;25.40;99.90;;;;;;4978408;28;20435;-84
2022/12/29 02:13:26;;;;;;;9.38;2.15;;;25.40;99.90;;;;;;4973949;28;20412;-86
2022/12/29 02:16:16;;;;;;;8.63;2.00;;;25.40;99.90;;;;;;4955727;28;20934;-84
2022/12/29 02:19:04;;;;;;;6.30;2.03;;;25.40;99.90;;;;;;4972588;28;20444;-86
2022/12/29 02:21:49;;;;;;;7.05;2.22;;;25.50;99.90;;;;;;5007192;28;20409;-86
2022/12/29 02:24:25;;;;;;;9.30;2.30;;;25.50;99.90;;;;;;5048203;28;20959;-84
2022/12/29 02:27:28;;;;;;;7.85;2.17;;;25.40;99.90;;;;;;5043155;28;20440;-82
2022/12/29 02:30:06;;;;;;;7.88;2.13;;;25.50;99.90;;;;;;5035932;28;20837;-83
2022/12/29 02:33:00;;;;;;;8.05;2.45;;;25.70;99.90;;;;;;5042769;28;20377;-85
2022/12/29 02:36:11;;;;;;;9.95;2.60;;;25.60;99.90;;;;;;5039311;28;20399;-85
2022/12/29 02:38:56;;;;;;;7.25;2.50;;;25.50;99.90;;;;;;5033223;28;20427;-85
2022/12/29 02:41:44;;;;;;;7.28;2.30;;;25.50;99.90;;;;;;5034067;28;20465;-88
2022/12/29 02:44:46;;;;;;;7.30;2.43;;;25.50;99.90;;;;;;5054911;28;20378;-84
2022/12/29 02:47:22;;;;;;;7.73;2.20;;;25.30;99.90;;;;;;4992154;28;20409;-85
2022/12/29 02:49:53;;;;;;;5.82;2.20;;;25.30;99.90;;;;;;4987715;28;20403;-84
2022/12/29 02:52:36;;;;;;;5.80;2.30;;;25.50;99.90;;;;;;4972582;28;20481;-83
2022/12/29 02:55:04;;;;;;;8.97;2.80;;;25.70;99.90;;;;;;4970416;28;20405;-84
2022/12/29 02:57:35;;;;;;;6.43;2.38;;;25.70;99.90;;;;;;4972480;28;20391;-85
2022/12/29 03:00:12;;;;;;;7.00;2.58;;;25.70;99.90;;;;;;4972457;28;20413;-84
2022/12/29 03:03:03;;;;;;;7.03;2.60;;;25.60;99.90;;;;;;4972373;28;20379;-82
2022/12/29 03:06:08;;;;;;;6.47;2.40;;;25.50;99.90;;;;;;4971900;28;20538;-85
2022/12/29 03:08:49;;;;;;;6.85;2.80;;;25.50;99.90;;;;;;4972303;28;20398;-87
2022/12/29 03:17:51;;;;;;;8.32;2.70;;;26.10;99.90;;;;;;4954051;28;20511;-83
2022/12/29 03:20:31;;;;;;;6.72;2.70;;;26.10;99.90;;;;;;4964356;28;20446;-84
2022/12/29 03:23:03;;;;;;;8.60;2.75;;;26.20;99.70;;;;;;5048543;28;20376;-85
2022/12/29 03:25:39;;;;;;;7.50;2.63;;;26.10;99.80;;;;;;5043168;28;20403;-85
2022/12/29 03:28:16;;;;;;;8.32;2.70;;;26.20;99.80;;;;;;5052190;28;20379;-83
2022/12/29 03:30:45;;;;;;;9.00;2.53;;;26.20;99.50;;;;;;5052148;28;20732;-84
2022/12/29 03:33:19;;;;;;;8.73;2.72;;;26.40;99.50;;;;;;5051576;28;20388;-87
2022/12/29 03:35:49;;;;;;;7.45;2.55;;;26.60;99.10;;;;;;5042328;28;20792;-87
2022/12/29 03:38:37;;;;;;;8.68;2.72;;;26.70;98.70;;;;;;5049469;28;20372;-83
2022/12/29 03:41:09;;;;;;;8.48;2.80;;;27.00;98.40;;;;;;5050194;28;20478;-85
2022/12/29 03:43:37;;;;;;;7.53;2.42;;;27.20;98.00;;;;;;5051890;28;20380;-84
2022/12/29 03:46:04;;;;;;;8.65;2.80;;;27.50;97.50;;;;;;5036168;28;20407;-82
2022/12/29 03:48:32;;;;;;;7.90;2.60;;;27.70;97.00;;;;;;5041048;28;20449;-82
2022/12/29 03:50:59;;;;;;;9.70;2.80;;;27.60;97.00;;;;;;5052278;28;20408;-86
2022/12/29 03:53:27;;;;;;;7.03;2.57;;;27.60;96.80;;;;;;5035766;28;20384;-86
2022/12/29 03:55:53;;;;;;;9.27;2.63;;;27.40;96.50;;;;;;5047456;28;20403;-84
2022/12/29 03:58:20;;;;;;;10.02;2.60;;;27.50;96.50;;;;;;5051748;28;20426;-82
2022/12/29 04:00:48;;;;;;;8.88;2.67;;;27.50;96.50;;;;;;5050658;28;20399;-83
2022/12/29 04:03:16;;;;;;;10.48;2.80;;;27.40;96.80;;;;;;5051862;28;20386;-82
2022/12/29 04:05:43;;;;;;;7.60;2.50;;;27.40;96.70;;;;;;5051183;28;20400;-83
2022/12/29 04:08:10;;;;;;;6.97;2.50;;;27.30;96.70;;;;;;5039182;28;20439;-83
2022/12/29 04:10:37;;;;;;;8.20;2.40;;;27.20;96.80;;;;;;5031993;28;20468;-83
2022/12/29 04:13:04;;;;;;;8.52;2.67;;;27.00;96.90;;;;;;5022867;28;20391;-84
2022/12/29 04:15:31;;;;;;;9.85;2.65;;;26.90;96.90;;;;;;5050948;28;20390;-82
2022/12/29 04:17:59;;;;;;;8.80;2.80;;;26.70;97.20;;;;;;5039588;28;20429;-84
2022/12/29 04:23:11;;;;;;;8.40;2.70;;;26.50;97.50;;;;;;5051869;28;20451;-85
2022/12/29 04:25:38;;;;;;;8.77;2.75;;;26.40;97.60;;;;;;5051347;28;20406;-84
2022/12/29 04:28:07;;;;;;;11.35;2.90;;;26.30;97.80;;;;;;5051230;28;20457;-85
2022/12/29 04:30:34;;;;;;;38.97;7.07;;;26.30;97.90;;;;;;5049656;28;20388;-85
2022/12/29 04:33:01;;;;;;;9.03;2.90;;;26.20;98.00;;;;;;5050976;28;20392;-86
2022/12/29 04:35:29;;;;;;;9.50;3.00;;;26.20;98.10;;;;;;5025511;28;20381;-88
2022/12/29 04:37:56;;;;;;;8.77;3.00;;;26.10;98.30;;;;;;5031903;28;20776;-89
2022/12/29 04:40:23;;;;;;;7.97;2.60;;;26.10;98.40;;;;;;5055562;28;20459;-86
2022/12/29 04:42:50;;;;;;;5.70;2.55;;;26.20;98.20;;;;;;5044956;28;20408;-88
2022/12/29 04:45:18;;;;;;;10.35;2.83;;;26.20;98.20;;;;;;5032513;28;20390;-85
2022/12/29 04:47:45;;;;;;;6.28;2.65;;;26.20;98.20;;;;;;5042302;28;20411;-89
2022/12/29 04:50:12;;;;;;;5.60;2.53;;;26.30;98.10;;;;;;5033304;28;20383;-90
2022/12/29 04:52:40;;;;;;;6.83;2.60;;;26.20;98.10;;;;;;5051367;28;20397;-84
2022/12/29 04:55:07;;;;;;;7.20;2.58;;;26.20;98.10;;;;;;5042438;28;20380;-85
2022/12/29 04:57:35;;;;;;;8.73;2.80;;;26.30;98.10;;;;;;5054822;28;20757;-86
2022/12/29 05:00:02;;;;;;;9.27;2.58;;;26.30;98.00;;;;;;5053953;28;20453;-85
2022/12/29 05:02:30;;;;;;;43.45;7.25;;;26.40;97.80;;;;;;5037827;28;20861;-88
2022/12/29 05:04:57;;;;;;;12.48;3.00;;;26.40;97.70;;;;;;5046629;28;20375;-86
2022/12/29 05:07:24;;;;;;;7.72;2.80;;;26.50;97.70;;;;;;5042963;28;20401;-86
2022/12/29 05:09:52;;;;;;;7.60;2.63;;;26.60;97.50;;;;;;5041523;28;20502;-83
2022/12/29 05:12:19;;;;;;;7.78;2.50;;;26.70;97.40;;;;;;5055264;28;20379;-83
2022/12/29 05:14:46;;;;;;;6.63;2.42;;;27.00;97.00;;;;;;5047667;28;20389;-84
2022/12/29 05:20:35;;;;;;;6.80;2.55;;;27.10;96.70;;;;;;5038801;28;20460;-88
2022/12/29 05:23:02;;;;;;;6.45;2.30;;;26.90;96.90;;;;;;5020582;28;20831;-90
2022/12/29 05:25:29;;;;;;;5.93;2.40;;;26.90;96.60;;;;;;5054996;28;20403;-87
2022/12/29 05:27:57;;;;;;;9.43;2.50;;;26.90;96.00;;;;;;5057588;28;20421;-86
2022/12/29 05:30:24;;;;;;;10.23;2.85;;;26.70;96.60;;;;;;5074739;28;20382;-87
2022/12/29 05:32:51;;;;;;;8.25;2.80;;;26.50;96.90;;;;;;5074602;28;20374;-85
2022/12/29 05:35:18;;;;;;;7.13;2.78;;;26.60;96.90;;;;;;5050069;28;20415;-85
2022/12/29 05:37:45;;;;;;;8.10;2.75;;;26.60;97.00;;;;;;5050524;28;20388;-91
2022/12/29 05:40:12;;;;;;;9.88;2.97;;;26.40;97.10;;;;;;5054361;28;20388;-88
2022/12/29 05:42:40;;;;;;;10.45;2.97;;;26.40;97.30;;;;;;5054521;28;20448;-90
2022/12/29 05:45:08;;;;;;;9.57;2.95;;;26.50;97.20;;;;;;5054596;28;20383;-85
2022/12/29 05:47:35;;;;;;;9.82;2.97;;;26.50;97.10;;;;;;5053573;28;20752;-86
2022/12/29 05:50:02;;;;;;;8.32;2.58;;;26.50;97.20;;;;;;5054410;28;20735;-86
2022/12/29 05:52:45;;;;;;;6.35;2.40;;;26.50;97.20;;;;;;5053785;28;20526;-88
2022/12/29 05:55:12;;;;;;;7.65;2.60;;;26.40;97.10;;;;;;5052052;28;20387;-87
2022/12/29 05:57:40;;;;;;;8.18;2.70;;;26.40;97.10;;;;;;5043259;28;20388;-83
2022/12/29 06:00:08;;;;;;;9.25;2.70;;;26.40;97.10;;;;;;5052246;28;20445;-84
2022/12/29 06:02:35;;;;;;;16.17;2.85;;;26.40;97.20;;;;;;5053126;28;20384;-83
2022/12/29 06:05:02;;;;;;;10.00;2.80;;;26.20;97.50;;;;;;5047159;28;20947;-82
2022/12/29 06:07:30;;;;;;;8.82;2.75;;;26.10;97.70;;;;;;5049617;28;20403;-82
2022/12/29 06:09:57;;;;;;;10.95;2.63;;;26.10;97.50;;;;;;5049454;28;20809;-82
2022/12/29 06:12:24;;;;;;;16.38;3.08;;;26.10;97.50;;;;;;5035812;28;20395;-81
2022/12/29 06:14:51;;;;;;;19.57;4.67;;;26.00;97.70;;;;;;5053666;28;20387;-83
2022/12/29 06:17:18;;;;;;;21.25;4.50;;;26.00;97.90;;;;;;5046179;28;20384;-82
2022/12/29 06:19:45;;;;;;;28.83;4.67;;;25.90;97.90;;;;;;5053958;28;20392;-88
2022/12/29 06:22:13;;;;;;;84.43;9.97;;;25.90;98.00;;;;;;5052222;28;20462;-88
2022/12/29 06:24:41;;;;;;;12.32;3.35;;;25.90;97.90;;;;;;5052519;28;20418;-89
2022/12/29 06:27:08;;;;;;;25.75;5.30;;;25.80;97.90;;;;;;5053420;28;20407;-91
2022/12/29 06:29:36;;;;;;;17.55;4.10;;;25.60;98.20;;;;;;5048808;28;20387;-84
2022/12/29 06:32:04;;;;;;;10.95;2.90;;;25.60;98.40;;;;;;5053136;28;20442;-82
2022/12/29 06:34:31;;;;;;;9.73;2.73;;;25.50;98.40;;;;;;5053113;28;20449;-83
2022/12/29 06:36:58;;;;;;;9.40;2.65;;;25.50;98.50;;;;;;5048347;28;20383;-83
2022/12/29 06:39:25;;;;;;;9.70;2.60;;;25.50;98.70;;;;;;5052140;28;20402;-82
2022/12/29 06:41:54;;;;;;;7.97;2.75;;;25.40;98.90;;;;;;5051758;28;20388;-85
2022/12/29 06:44:22;;;;;;;8.30;2.78;;;25.50;99.00;;;;;;5038854;28;20717;-82
2022/12/29 06:46:49;;;;;;;15.32;2.90;;;25.50;99.10;;;;;;5052820;28;20911;-82
2022/12/29 06:49:17;;;;;;;9.57;2.90;;;25.50;99.10;;;;;;5050488;28;20396;-82
2022/12/29 06:51:44;;;;;;;8.20;2.50;;;25.40;99.10;;;;;;5048867;28;20392;-83
2022/12/29 06:54:13;;;;;;;11.18;3.05;;;25.40;99.30;;;;;;5052230;28;20903;-85
2022/12/29 06:56:40;;;;;;;12.93;3.40;;;25.30;99.50;;;;;;5033325;28;20391;-82
2022/12/29 06:59:07;;;;;;;8.50;2.90;;;25.30;99.70;;;;;;5048077;28;20430;-82
2022/12/29 07:01:35;;;;;;;10.35;2.95;;;25.10;99.80;;;;;;5046142;28;20403;-82
2022/12/29 07:04:05;;;;;;;13.13;3.40;;;24.90;99.90;;;;;;5035092;28;20396;-83
2022/12/29 07:06:32;;;;;;;11.45;3.30;;;24.80;99.90;;;;;;5049020;28;20799;-82
2022/12/29 07:09:00;;;;;;;11.57;3.20;;;24.70;99.90;;;;;;5052473;28;20394;-83
2022/12/29 07:11:27;;;;;;;9.73;3.00;;;24.50;99.90;;;;;;5052925;28;20743;-82
2022/12/29 07:13:54;;;;;;;11.02;2.97;;;24.40;99.90;;;;;;5047298;28;20450;-82
2022/12/29 07:16:21;;;;;;;10.23;3.88;;;24.40;99.90;;;;;;5050599;28;20421;-82
2022/12/29 07:18:48;;;;;;;12.15;4.45;;;24.20;99.90;;;;;;5049425;28;20379;-83
2022/12/29 07:21:16;;;;;;;14.68;5.90;;;24.10;99.90;;;;;;5046571;28;20449;-80
2022/12/29 07:23:43;;;;;;;14.05;5.40;;;24.00;99.90;;;;;;5048511;28;20910;-81
2022/12/29 07:26:13;;;;;;;15.10;8.47;;;24.00;99.90;;;;;;5046686;28;20408;-81
2022/12/29 07:28:41;;;;;;;19.98;10.13;;;23.90;99.90;;;;;;5049234;28;20406;-85
2022/12/29 07:31:18;;;;;;;13.88;4.18;;;23.90;99.90;;;;;;5050815;28;20398;-84
2022/12/29 07:33:46;;;;;;;13.02;3.50;;;23.90;99.90;;;;;;5052480;28;20745;-84
2022/12/29 07:36:14;;;;;;;11.20;3.28;;;23.70;99.90;;;;;;5052740;28;20747;-84
2022/12/29 07:38:42;;;;;;;12.63;3.40;;;23.60;99.90;;;;;;5051886;28;20380;-83
2022/12/29 07:41:09;;;;;;;11.32;3.30;;;23.50;99.90;;;;;;5045779;28;20388;-83
2022/12/29 07:43:36;;;;;;;12.20;3.40;;;23.40;99.90;;;;;;5050806;28;20395;-82
2022/12/29 07:46:03;;;;;;;13.05;3.40;;;23.30;99.90;;;;;;5051394;28;20500;-83
2022/12/29 07:48:30;;;;;;;13.00;3.40;;;23.30;99.90;;;;;;5050382;28;20388;-84
2022/12/29 07:50:57;;;;;;;15.25;3.70;;;23.30;99.90;;;;;;5038795;28;20715;-81
2022/12/29 07:53:24;;;;;;;12.35;3.60;;;23.20;99.90;;;;;;5032441;28;20369;-84
2022/12/29 07:55:51;;;;;;;11.73;3.60;;;23.00;99.90;;;;;;5032349;28;20410;-82
2022/12/29 07:58:18;;;;;;;13.73;3.43;;;22.90;99.90;;;;;;5031086;28;20373;-82
2022/12/29 08:00:46;;;;;;;12.02;3.30;;;22.80;99.90;;;;;;5039477;28;20396;-82
2022/12/29 08:03:13;;;;;;;10.57;3.10;;;22.70;99.90;;;;;;5051879;28;20410;-80
2022/12/29 08:05:40;;;;;;;10.88;3.30;;;22.60;99.90;;;;;;5033383;28;20952;-80
2022/12/29 08:08:07;;;;;;;11.32;3.08;;;22.50;99.90;;;;;;5046888;28;20435;-81
2022/12/29 08:10:34;;;;;;;12.23;3.22;;;22.50;99.90;;;;;;5049742;28;20387;-81
2022/12/29 08:13:01;;;;;;;11.45;3.25;;;22.50;99.90;;;;;;5046195;28;20420;-81
2022/12/29 08:15:28;;;;;;;10.82;3.30;;;22.30;99.90;;;;;;5050809;28;20935;-81
2022/12/29 08:17:55;;;;;;;10.52;3.22;;;22.30;99.90;;;;;;5051414;28;20398;-81
2022/12/29 08:20:22;;;;;;;11.75;3.20;;;22.20;99.90;;;;;;5044694;28;20396;-80
2022/12/29 08:22:51;;;;;;;11.77;3.30;;;22.00;99.90;;;;;;5049629;28;20388;-80
2022/12/29 08:25:19;;;;;;;10.95;3.15;;;22.00;99.90;;;;;;5034237;28;20436;-81
2022/12/29 08:27:46;;;;;;;13.30;3.30;;;22.00;99.90;;;;;;5035720;28;20390;-81
2022/12/29 08:30:14;;;;;;;11.43;3.20;;;21.90;99.90;;;;;;5046665;28;20380;-81
2022/12/29 08:32:41;;;;;;;9.25;3.20;;;21.90;99.90;;;;;;5034021;28;20908;-80
2022/12/29 08:35:08;;;;;;;12.70;3.10;;;21.90;99.90;;;;;;5031913;28;20378;-80
2022/12/29 08:37:36;;;;;;;10.50;2.90;;;21.90;99.90;;;;;;5039787;28;20407;-80
2022/12/29 08:40:03;;;;;;;11.10;3.10;;;21.90;99.90;;;;;;5051118;28;20379;-82
2022/12/29 08:42:32;;;;;;;11.93;3.20;;;21.80;99.90;;;;;;5069410;28;20386;-80
2022/12/29 08:45:00;;;;;;;9.77;3.10;;;21.80;99.90;;;;;;5043551;28;20380;-80
2022/12/29 08:47:27;;;;;;;10.18;2.85;;;21.80;99.90;;;;;;5040904;28;20408;-80
2022/12/29 08:49:54;;;;;;;11.73;3.00;;;21.80;99.90;;;;;;5049423;28;20455;-80
2022/12/29 08:52:22;;;;;;;11.17;2.90;;;21.70;99.90;;;;;;5049834;28;20470;-80
2022/12/29 08:54:49;;;;;;;10.15;2.90;;;21.60;99.90;;;;;;5048000;28;20388;-79
2022/12/29 08:57:16;;;;;;;11.75;3.10;;;21.50;99.90;;;;;;5031711;28;20416;-80
2022/12/29 08:59:44;;;;;;;10.43;2.80;;;21.40;99.90;;;;;;5049619;28;20786;-80
2022/12/29 09:02:14;;;;;;;11.50;3.00;;;21.40;99.90;;;;;;5049773;28;20415;-80
2022/12/29 09:04:41;;;;;;;11.57;3.10;;;21.40;99.90;;;;;;5009382;28;20388;-80
2022/12/29 09:07:08;;;;;;;12.07;2.90;;;21.30;99.90;;;;;;5039514;28;20403;-81
2022/12/29 09:09:35;;;;;;;10.43;2.70;;;21.30;99.90;;;;;;5044028;28;20380;-81
2022/12/29 09:12:02;;;;;;;9.73;2.80;;;21.20;99.90;;;;;;5038474;28;20397;-81
2022/12/29 09:14:30;;;;;;;11.27;2.90;;;21.20;99.90;;;;;;5026784;28;20391;-81
2022/12/29 09:19:42;;;;;;;13.75;3.10;;;21.10;99.90;;;;;;5048804;28;20374;-81
2022/12/29 09:22:09;;;;;;;9.13;2.70;;;21.00;99.90;;;;;;5049060;28;20394;-80
2022/12/29 09:24:35;;;;;;;10.70;3.20;;;21.10;99.90;;;;;;5048680;28;20384;-80
2022/12/29 09:27:03;;;;;;;12.20;2.95;;;21.10;99.90;;;;;;5045646;28;20416;-79
2022/12/29 09:29:30;;;;;;;12.35;2.97;;;21.00;99.90;;;;;;5031225;28;20879;-80
2022/12/29 09:31:57;;;;;;;10.25;3.00;;;21.00;99.90;;;;;;5046124;28;20490;-82
2022/12/29 09:34:24;;;;;;;10.93;3.00;;;20.90;99.90;;;;;;5043653;28;20739;-80
2022/12/29 09:36:52;;;;;;;9.00;2.90;;;21.00;99.90;;;;;;5049441;28;20387;-81
2022/12/29 09:39:18;;;;;;;10.80;2.92;;;20.90;99.90;;;;;;5041728;28;20419;-82
2022/12/29 09:42:11;;;;;;;10.73;3.03;;;20.90;99.90;;;;;;5048298;28;20427;-80
2022/12/29 09:44:47;;;;;;;13.18;3.30;;;20.80;99.90;;;;;;5044589;28;20426;-80
2022/12/29 09:47:17;;;;;;;10.80;3.00;;;20.80;99.90;;;;;;5043981;28;20411;-81
2022/12/29 09:50:02;;;;;;;16.00;3.50;;;20.80;99.90;;;;;;5050965;28;20383;-80
2022/12/29 09:52:40;;;;;;;14.60;2.90;;;20.70;99.90;;;;;;5047659;28;20951;-80
2022/12/29 09:55:14;;;;;;;12.90;3.15;;;20.70;99.90;;;;;;5052313;28;20423;-81
2022/12/29 09:58:00;;;;;;;10.45;3.05;;;20.70;99.90;;;;;;5052523;28;20386;-80
2022/12/29 10:00:48;;;;;;;9.20;2.80;;;20.70;99.90;;;;;;5052075;28;20524;-80
2022/12/29 10:03:24;;;;;;;9.43;2.75;;;20.70;99.90;;;;;;5052230;28;20384;-80
2022/12/29 10:06:03;;;;;;;9.50;2.85;;;20.70;99.90;;;;;;5011998;28;20410;-79
2022/12/29 10:09:02;;;;;;;12.30;3.22;;;20.70;99.90;;;;;;5042669;28;20405;-80
2022/12/29 10:11:48;;;;;;;11.30;3.17;;;20.70;99.90;;;;;;5044259;28;20395;-79
2022/12/29 10:14:48;;;;;;;12.15;3.15;;;20.60;99.90;;;;;;5047619;28;20948;-80
2022/12/29 10:17:43;;;;;;;9.48;3.03;;;20.60;99.90;;;;;;5030943;28;20402;-80
2022/12/29 10:20:36;;;;;;;12.90;3.43;;;20.60;99.90;;;;;;5046927;28;20419;-80
2022/12/29 10:23:06;;;;;;;12.93;3.40;;;20.60;99.90;;;;;;5048034;28;20460;-79
2022/12/29 10:25:38;;;;;;;13.50;3.40;;;20.50;99.90;;;;;;5046449;28;20397;-79
2022/12/29 10:28:18;;;;;;;14.57;3.47;;;20.50;99.90;;;;;;5042610;28;20434;-80
2022/12/29 10:30:48;;;;;;;15.38;3.75;;;20.40;99.90;;;;;;5052608;28;20393;-80
2022/12/29 10:33:26;;;;;;;14.55;3.53;;;20.40;99.90;;;;;;5041346;28;20398;-79
2022/12/29 10:35:53;;;;;;;10.70;3.28;;;20.40;99.90;;;;;;5049801;28;20390;-79
2022/12/29 10:38:23;;;;;;;11.68;3.33;;;20.30;99.90;;;;;;5046824;28;20402;-79
2022/12/29 10:41:05;;;;;;;13.45;3.40;;;20.30;99.90;;;;;;5046477;28;20385;-79
2022/12/29 10:43:49;;;;;;;13.68;3.53;;;20.30;99.90;;;;;;5048803;28;20384;-79
2022/12/29 10:46:24;;;;;;;15.13;3.75;;;20.30;99.90;;;;;;5051865;28;20411;-78
2022/12/29 10:48:51;;;;;;;12.15;3.25;;;20.20;99.90;;;;;;5051544;28;20518;-79
2022/12/29 10:51:41;;;;;;;12.45;3.42;;;20.20;99.90;;;;;;5028628;28;20393;-79
2022/12/29 10:54:51;;;;;;;12.02;3.33;;;20.30;99.90;;;;;;5032378;28;20395;-81
2022/12/29 10:57:32;;;;;;;11.60;3.05;;;20.30;99.90;;;;;;5046535;28;20437;-81
2022/12/29 11:00:00;;;;;;;11.55;3.35;;;20.20;99.90;;;;;;5044274;28;20419;-80
2022/12/29 11:03:04;;;;;;;13.40;3.58;;;20.20;99.90;;;;;;5049174;28;20382;-80
2022/12/29 11:05:55;;;;;;;12.38;3.40;;;20.20;99.90;;;;;;5051013;28;20533;-80
2022/12/29 11:08:47;;;;;;;11.10;3.60;;;20.20;99.90;;;;;;5050149;28;20407;-81
2022/12/29 11:11:27;;;;;;;12.50;3.47;;;20.20;99.90;;;;;;5032291;28;20756;-79
2022/12/29 11:14:13;;;;;;;12.68;3.50;;;20.10;99.90;;;;;;5046529;28;20782;-79
2022/12/29 11:16:41;;;;;;;12.27;3.25;;;20.10;99.90;;;;;;5045967;28;20390;-80
2022/12/29 11:19:26;;;;;;;13.38;3.40;;;20.10;99.90;;;;;;5038817;28;20508;-81
2022/12/29 11:21:53;;;;;;;13.15;3.60;;;20.10;99.90;;;;;;5047988;28;20407;-80
2022/12/29 11:24:23;;;;;;;15.88;3.70;;;20.10;99.90;;;;;;5049426;28;20450;-81
2022/12/29 11:26:57;;;;;;;13.73;3.60;;;20.10;99.90;;;;;;5048747;28;20802;-81
2022/12/29 11:29:28;;;;;;;11.95;3.20;;;20.00;99.90;;;;;;5048759;28;20391;-80
2022/12/29 11:31:58;;;;;;;11.93;3.30;;;20.00;99.90;;;;;;5050463;28;20899;-80
2022/12/29 11:34:36;;;;;;;10.00;3.17;;;20.00;99.90;;;;;;5033089;28;20472;-81
2022/12/29 11:37:17;;;;;;;14.97;3.60;;;20.00;99.90;;;;;;5050434;28;20429;-80
2022/12/29 11:40:05;;;;;;;11.95;3.50;;;20.00;99.90;;;;;;5050879;28;20394;-80
2022/12/29 11:42:40;;;;;;;11.30;3.50;;;20.00;99.90;;;;;;5050694;28;20399;-81
2022/12/29 11:45:17;;;;;;;11.57;3.30;;;20.00;99.90;;;;;;5042156;28;20495;-80
2022/12/29 11:47:56;;;;;;;11.57;3.35;;;20.00;99.90;;;;;;5050554;28;20889;-80
2022/12/29 11:50:31;;;;;;;11.73;3.22;;;20.00;99.90;;;;;;5050390;28;20433;-82
2022/12/29 11:53:06;;;;;;;12.80;3.22;;;20.00;99.90;;;;;;5049125;28;20396;-81
2022/12/29 11:55:33;;;;;;;11.27;3.40;;;19.90;99.90;;;;;;5049232;28;20392;-81
2022/12/29 11:58:04;;;;;;;9.73;3.13;;;19.90;99.90;;;;;;5049814;28;20384;-81
2022/12/29 12:00:36;;;;;;;10.55;3.50;;;19.90;99.90;;;;;;5050011;28;20438;-81
2022/12/29 12:03:04;;;;;;;11.98;3.55;;;19.90;99.90;;;;;;5050766;28;20375;-79
2022/12/29 12:05:56;;;;;;;11.47;3.17;;;19.90;99.90;;;;;;5029310;28;20392;-80
2022/12/29 12:08:51;;;;;;;11.43;3.35;;;19.90;99.90;;;;;;5049803;28;20407;-80
2022/12/29 12:11:24;;;;;;;10.57;3.30;;;19.90;99.90;;;;;;5040926;28;20383;-81
2022/12/29 12:13:59;;;;;;;9.98;2.83;;;19.90;99.90;;;;;;5050733;28;20459;-80
2022/12/29 12:16:35;;;;;;;13.32;3.40;;;20.00;99.90;;;;;;5047881;28;20758;-81
2022/12/29 12:19:20;;;;;;;10.43;3.25;;;20.10;99.90;;;;;;5016383;28;20380;-81
2022/12/29 12:21:52;;;;;;;13.10;3.30;;;20.10;99.90;;;;;;5049926;28;20364;-81
2022/12/29 12:24:36;;;;;;;10.82;3.22;;;20.20;99.90;;;;;;5050484;28;20735;-81
2022/12/29 12:27:04;;;;;;;12.93;3.40;;;20.20;99.90;;;;;;5043704;28;20408;-80
2022/12/29 12:29:38;;;;;;;12.25;3.58;;;20.10;99.90;;;;;;5056241;28;20399;-80
2022/12/29 12:32:19;;;;;;;11.25;3.17;;;20.10;99.90;;;;;;5039430;28;20411;-79
2022/12/29 12:34:48;;;;;;;11.80;3.45;;;20.00;99.90;;;;;;5040136;28;20379;-80
2022/12/29 12:37:31;;;;;;;10.55;3.00;;;20.10;99.90;;;;;;5050209;28;20384;-80
2022/12/29 12:40:22;;;;;;;11.80;3.30;;;20.00;99.90;;;;;;5048834;28;20392;-80
2022/12/29 12:43:30;;;;;;;12.00;3.40;;;20.00;99.90;;;;;;5049899;28;20459;-80
2022/12/29 12:46:18;;;;;;;8.90;2.92;;;20.00;99.90;;;;;;5046573;28;20887;-80
2022/12/29 12:49:03;;;;;;;9.50;3.05;;;20.00;99.90;;;;;;5048879;28;20400;-80
2022/12/29 12:52:03;;;;;;;13.38;3.25;;;20.00;99.90;;;;;;5035899;28;20765;-81
2022/12/29 12:54:58;;;;;;;9.18;3.20;;;20.10;99.90;;;;;;5048081;28;20419;-80
2022/12/29 12:57:49;;;;;;;9.03;3.10;;;20.10;99.90;;;;;;5045834;28;20431;-79
2022/12/29 13:00:19;;;;;;;9.43;2.70;;;20.00;99.90;;;;;;5046709;28;20811;-80
2022/12/29 13:03:19;;;;;;;7.10;2.45;;;20.10;99.90;;;;;;5036423;28;20884;-80
2022/12/29 13:05:58;;;;;;;9.65;2.80;;;20.10;99.90;;;;;;5047489;28;20447;-80
2022/12/29 13:09:09;;;;;;;7.90;2.58;;;20.10;99.90;;;;;;5049787;28;20396;-79
2022/12/29 13:12:10;;;;;;;10.73;2.80;;;20.00;99.90;;;;;;4949672;28;20400;-80
2022/12/29 13:15:05;;;;;;;9.57;3.00;;;20.00;99.90;;;;;;4941371;28;20388;-80
2022/12/29 13:17:45;;;;;;;11.20;3.57;;;19.90;99.90;;;;;;4947295;28;20568;-80
2022/12/29 13:20:32;;;;;;;10.38;3.40;;;19.90;99.90;;;;;;4952245;28;20470;-80
2022/12/29 13:23:17;;;;;;;9.90;3.70;;;19.80;99.90;;;;;;4914061;29;20415;-80
2022/12/29 13:25:50;;;;;;;10.48;3.60;;;19.80;99.90;;;;;;4910133;29;20533;-80
2022/12/29 13:28:40;;;;;;;14.13;4.00;;;19.70;99.90;;;;;;4914285;29;20407;-80
2022/12/29 13:31:47;;;;;;;12.45;3.70;;;19.70;99.90;;;;;;4914371;29;20876;-80
2022/12/29 13:34:45;;;;;;;14.65;3.88;;;19.60;99.90;;;;;;4910492;29;20401;-80
2022/12/29 13:37:18;;;;;;;16.80;3.58;;;19.50;99.90;;;;;;4905725;29;20379;-79
2022/12/29 13:39:59;;;;;;;11.38;3.63;;;19.40;99.90;;;;;;4912282;29;20415;-80
2022/12/29 13:42:28;;;;;;;11.52;3.70;;;19.40;99.90;;;;;;4913525;29;20542;-80
2022/12/29 13:45:14;;;;;;;12.13;3.60;;;19.30;99.90;;;;;;4913640;29;20414;-80
2022/12/29 13:47:47;;;;;;;10.30;3.53;;;19.30;99.90;;;;;;4936137;28;20423;-80
2022/12/29 13:50:20;;;;;;;11.73;3.70;;;19.40;99.90;;;;;;5005039;28;20789;-81
2022/12/29 13:53:11;;;;;;;11.93;3.50;;;19.50;99.90;;;;;;4992354;28;20479;-81
2022/12/29 13:56:03;;;;;;;15.18;3.80;;;19.40;99.90;;;;;;4990257;28;20393;-81